createdAt,value
2022-09-01T00:03:01.743Z,99650.16
2022-09-01T00:08:05.398Z,99657.84
2022-09-01T00:13:09.877Z,99655.59
2022-09-01T00:18:15.798Z,99659.75
2022-09-01T00:23:18.908Z,99652.59
2022-09-01T00:28:21.946Z,99650.97
2022-09-01T00:33:33.638Z,99657.25
2022-09-01T00:38:36.793Z,99645.47
2022-09-01T00:43:44.547Z,99650.13
2022-09-01T00:48:54.352Z,99642.19
2022-09-01T00:53:59.842Z,99645.84
2022-09-01T00:59:03.018Z,99642.00
2022-09-01T01:04:14.880Z,99635.50
2022-09-01T01:09:18.819Z,99642.50
2022-09-01T01:14:21.911Z,99637.47
2022-09-01T01:19:56.695Z,99632.22
2022-09-01T01:25:01.855Z,99633.38
2022-09-01T01:30:10.040Z,99632.72
2022-09-01T01:35:15.923Z,99644.56
2022-09-01T01:40:22.975Z,99638.44
2022-09-01T01:45:26.703Z,99645.69
2022-09-01T01:50:35.844Z,99641.56
2022-09-01T01:55:41.864Z,99635.03
2022-09-01T02:00:46.745Z,99638.91
2022-09-01T02:05:54.876Z,99631.38
2022-09-01T02:11:00.224Z,99638.16
2022-09-01T02:16:13.089Z,99641.38
2022-09-01T02:21:20.631Z,99642.50
2022-09-01T02:26:30.188Z,99634.19
2022-09-01T02:31:35.740Z,99634.19
2022-09-01T02:36:42.513Z,99635.63
2022-09-01T02:41:49.418Z,99630.38
2022-09-01T02:46:54.730Z,99624.91
2022-09-01T02:52:02.047Z,99621.22
2022-09-01T02:57:09.148Z,99618.03
2022-09-01T03:02:12.630Z,99609.19
2022-09-01T03:07:19.511Z,99608.44
2022-09-01T03:12:28.327Z,99611.50
2022-09-01T03:17:31.319Z,99598.84
2022-09-01T03:22:34.787Z,99608.63
2022-09-01T03:27:39.178Z,99611.34
2022-09-01T03:32:42.290Z,99613.34
2022-09-01T03:37:45.411Z,99619.03
2022-09-01T03:42:49.821Z,99610.47
2022-09-01T03:47:54.423Z,99608.91
2022-09-01T03:53:00.510Z,99618.63
2022-09-01T03:58:10.190Z,99626.91
2022-09-01T04:03:17.022Z,99624.97
2022-09-01T04:08:23.045Z,99619.03
2022-09-01T04:13:32.175Z,99623.16
2022-09-01T04:18:35.275Z,99622.41
2022-09-01T04:23:39.225Z,99629.69
2022-09-01T04:28:48.337Z,99616.38
2022-09-01T04:33:53.239Z,99620.28
2022-09-01T04:39:00.755Z,99623.41
2022-09-01T04:44:07.423Z,99622.47
2022-09-01T04:49:16.276Z,99620.38
2022-09-01T04:54:20.961Z,99628.97
2022-09-01T04:59:27.331Z,99624.31
2022-09-01T05:04:34.969Z,99623.31
2022-09-01T05:09:39.686Z,99627.03
2022-09-01T05:15:09.271Z,99637.31
2022-09-01T05:20:13.987Z,99630.06
2022-09-01T05:25:17.191Z,99630.34
2022-09-01T05:30:22.783Z,99631.47
2022-09-01T05:35:32.409Z,99644.81
2022-09-01T05:40:41.429Z,99644.59
2022-09-01T05:46:05.764Z,99648.06
2022-09-01T05:51:27.506Z,99651.50
2022-09-01T05:56:33.937Z,99640.19
2022-09-01T06:01:41.836Z,99639.59
2022-09-01T06:07:06.948Z,99642.34
2022-09-01T06:12:18.102Z,99646.72
2022-09-01T06:17:25.878Z,99653.00
2022-09-01T06:22:32.982Z,99645.03
2022-09-01T06:27:41.293Z,99646.91
2022-09-01T06:32:46.849Z,99642.38
2022-09-01T06:37:49.950Z,99646.56
2022-09-01T06:43:12.169Z,99650.34
2022-09-01T06:48:20.056Z,99654.06
2022-09-01T06:53:34.543Z,99662.78
2022-09-01T06:58:41.689Z,99658.78
2022-09-01T07:03:48.653Z,99655.84
2022-09-01T07:14:22.267Z,99657.69
2022-09-01T07:19:48.400Z,99664.88
2022-09-01T07:25:11.753Z,99662.50
2022-09-01T07:30:31.962Z,99664.59
2022-09-01T07:36:24.771Z,99664.50
2022-09-01T07:46:46.284Z,99658.97
2022-09-01T07:51:57.019Z,99666.69
2022-09-01T07:57:03.056Z,99661.41
2022-09-01T08:02:08.426Z,99668.19
2022-09-01T08:07:17.108Z,99663.03
2022-09-01T08:12:28.929Z,99671.63
2022-09-01T08:17:34.457Z,99672.75
2022-09-01T08:22:54.746Z,99679.66
2022-09-01T08:28:00.765Z,99671.91
2022-09-01T08:33:11.913Z,99679.28
2022-09-01T08:38:20.342Z,99678.34
2022-09-01T08:43:38.863Z,99681.63
2022-09-01T08:54:29.759Z,99684.56
2022-09-01T08:59:35.436Z,99683.94
2022-09-01T09:04:59.124Z,99677.28
2022-09-01T09:10:12.745Z,99671.34
2022-09-01T09:15:23.660Z,99691.81
2022-09-01T09:20:27.418Z,99683.50
2022-09-01T09:25:31.791Z,99688.97
2022-09-01T09:30:34.960Z,99691.13
2022-09-01T09:35:42.011Z,99683.09
2022-09-01T09:46:25.625Z,99675.94
2022-09-01T09:51:29.523Z,99666.81
2022-09-01T09:56:34.482Z,99668.09
2022-09-01T10:01:37.660Z,99672.38
2022-09-01T10:06:45.321Z,99665.09
2022-09-01T10:11:54.009Z,99666.75
2022-09-01T10:17:04.439Z,99685.47
2022-09-01T10:22:12.564Z,99674.59
2022-09-01T10:27:22.549Z,99668.25
2022-09-01T10:32:38.241Z,99665.72
2022-09-01T10:37:50.250Z,99665.00
2022-09-01T10:42:57.073Z,99666.09
2022-09-01T10:48:31.161Z,99669.56
2022-09-01T10:53:41.351Z,99655.88
2022-09-01T11:04:40.004Z,99661.28
2022-09-01T11:09:45.116Z,99654.81
2022-09-01T11:14:52.740Z,99647.41
2022-09-01T11:19:59.234Z,99653.69
2022-09-01T11:25:39.456Z,99651.59
2022-09-01T11:30:52.919Z,99636.00
2022-09-01T11:36:01.507Z,99637.53
2022-09-01T11:41:06.559Z,99635.41
2022-09-01T11:46:18.698Z,99628.22
2022-09-01T11:51:22.305Z,99622.13
2022-09-01T11:56:28.296Z,99622.03
2022-09-01T12:01:36.391Z,99624.03
2022-09-01T12:06:39.408Z,99632.19
2022-09-01T12:11:42.755Z,99622.34
2022-09-01T12:17:08.505Z,99634.66
2022-09-01T12:22:16.148Z,99619.88
2022-09-01T12:27:19.572Z,99618.28
2022-09-01T12:32:24.056Z,99620.63
2022-09-01T12:37:28.305Z,99618.59
2022-09-01T12:42:41.166Z,99637.25
2022-09-01T12:47:52.454Z,99632.44
2022-09-01T12:52:58.280Z,99614.50
2022-09-01T12:58:03.217Z,99619.38
2022-09-01T13:03:14.144Z,99617.06
2022-09-01T13:08:20.345Z,99614.97
2022-09-01T13:13:25.596Z,99605.69
2022-09-01T13:18:30.393Z,99604.72
2022-09-01T13:23:33.459Z,99594.38
2022-09-01T13:28:38.946Z,99583.59
2022-09-01T13:39:08.260Z,99580.25
2022-09-01T13:44:11.659Z,99571.84
2022-09-01T13:54:38.958Z,99566.91
2022-09-01T13:59:42.153Z,99573.09
2022-09-01T14:04:46.550Z,99579.88
2022-09-01T14:09:49.616Z,99576.31
2022-09-01T14:20:19.799Z,99577.41
2022-09-01T14:25:23.329Z,99579.59
2022-09-01T14:30:31.597Z,99569.22
2022-09-01T14:35:39.341Z,99582.28
2022-09-01T14:40:44.679Z,99578.84
2022-09-01T14:45:48.225Z,99583.97
2022-09-01T14:50:52.779Z,99576.22
2022-09-01T14:55:57.057Z,99575.44
2022-09-01T15:01:11.880Z,99572.22
2022-09-01T15:06:24.820Z,99573.59
2022-09-01T15:11:28.487Z,99566.63
2022-09-01T15:16:35.565Z,99568.22
2022-09-01T15:21:42.115Z,99569.56
2022-09-01T15:26:47.326Z,99571.19
2022-09-01T15:31:50.372Z,99571.44
2022-09-01T15:36:54.991Z,99578.13
2022-09-01T15:41:58.006Z,99572.78
2022-09-01T15:47:01.004Z,99567.69
2022-09-01T15:52:05.689Z,99585.81
2022-09-01T15:57:09.020Z,99572.75
2022-09-01T16:02:15.289Z,99564.22
2022-09-01T16:07:19.720Z,99567.94
2022-09-01T16:12:22.819Z,99570.56
2022-09-01T16:17:43.987Z,99566.03
2022-09-01T16:22:54.783Z,99573.22
2022-09-01T16:27:58.893Z,99577.47
2022-09-01T16:33:19.872Z,99568.72
2022-09-01T16:38:35.872Z,99571.09
2022-09-01T16:43:48.468Z,99578.50
2022-09-01T16:48:57.896Z,99575.09
2022-09-01T16:54:13.025Z,99582.44
2022-09-01T16:59:26.378Z,99578.97
2022-09-01T17:04:37.099Z,99582.66
2022-09-01T17:09:43.599Z,99573.00
2022-09-01T17:14:52.043Z,99582.72
2022-09-01T17:19:55.338Z,99580.06
2022-09-01T17:30:12.594Z,99582.41
2022-09-01T17:35:24.248Z,99580.25
2022-09-01T17:40:35.702Z,99594.56
2022-09-01T17:45:47.664Z,99591.78
2022-09-01T17:51:04.509Z,99596.53
2022-09-01T17:56:32.785Z,99596.47
2022-09-01T18:01:43.921Z,99600.06
2022-09-01T18:06:52.652Z,99606.31
2022-09-01T18:12:02.605Z,99612.03
2022-09-01T18:17:11.707Z,99608.66
2022-09-01T18:22:18.068Z,99607.88
2022-09-01T18:27:24.245Z,99605.06
2022-09-01T18:32:40.271Z,99616.56
2022-09-01T18:37:54.866Z,99620.59
2022-09-01T18:43:12.486Z,99620.72
2022-09-01T18:48:26.699Z,99623.78
2022-09-01T18:53:37.934Z,99622.50
2022-09-01T18:58:54.337Z,99636.47
2022-09-01T19:04:09.898Z,99624.50
2022-09-01T19:09:18.414Z,99624.59
2022-09-01T19:14:30.395Z,99624.44
2022-09-01T19:19:43.697Z,99621.56
2022-09-01T19:24:51.961Z,99627.53
2022-09-01T19:30:00.206Z,99626.16
2022-09-01T19:35:11.302Z,99629.25
2022-09-01T19:40:18.254Z,99624.28
2022-09-01T19:45:41.851Z,99627.19
2022-09-01T19:50:51.030Z,99634.97
2022-09-01T19:55:58.912Z,99625.88
2022-09-01T20:01:12.558Z,99638.03
2022-09-01T20:06:25.135Z,99638.28
2022-09-01T20:11:41.557Z,99641.84
2022-09-01T20:16:48.633Z,99637.97
2022-09-01T20:21:51.836Z,99644.84
2022-09-01T20:27:01.648Z,99644.63
2022-09-01T20:32:07.283Z,99646.09
2022-09-01T20:37:16.007Z,99641.16
2022-09-01T20:42:24.427Z,99635.28
2022-09-01T20:47:30.629Z,99628.41
2022-09-01T20:52:41.061Z,99640.91
2022-09-01T20:57:51.997Z,99642.59
2022-09-01T21:03:04.006Z,99642.66
2022-09-01T21:08:19.230Z,99646.81
2022-09-01T21:13:34.968Z,99639.53
2022-09-01T21:18:53.996Z,99637.91
2022-09-01T21:23:56.958Z,99641.91
2022-09-01T21:29:08.216Z,99640.16
2022-09-01T21:34:16.708Z,99639.53
2022-09-01T21:39:19.940Z,99641.88
2022-09-01T21:44:23.197Z,99639.66
2022-09-01T21:49:27.617Z,99637.22
2022-09-01T21:54:32.148Z,99634.69
2022-09-01T21:59:35.211Z,99631.94
2022-09-01T22:04:39.916Z,99630.78
2022-09-01T22:09:43.107Z,99634.06
2022-09-01T22:14:46.068Z,99628.84
2022-09-01T22:19:50.445Z,99627.44
2022-09-01T22:24:53.530Z,99627.16
2022-09-01T22:29:56.538Z,99622.47
2022-09-01T22:35:02.715Z,99627.44
2022-09-01T22:40:07.412Z,99631.97
2022-09-01T22:45:12.145Z,99629.81
2022-09-01T22:50:16.547Z,99635.34
2022-09-01T22:55:19.683Z,99628.47
2022-09-01T23:00:22.707Z,99628.16
2022-09-01T23:05:27.334Z,99629.03
2022-09-01T23:10:30.448Z,99626.19
2022-09-01T23:15:33.757Z,99623.00
2022-09-01T23:20:38.108Z,99616.63
2022-09-01T23:25:43.687Z,99624.34
2022-09-01T23:30:49.805Z,99611.53
2022-09-01T23:35:57.046Z,99619.50
2022-09-01T23:41:01.420Z,99626.47
2022-09-01T23:46:05.983Z,99621.00
2022-09-01T23:51:11.939Z,99616.63
2022-09-01T23:56:19.365Z,99615.22
